createdAt,value
2023-01-20T00:00:54.182Z,5.00
2023-01-20T00:05:58.979Z,5.10
2023-01-20T00:11:06.135Z,5.10
2023-01-20T00:16:11.440Z,5.10
2023-01-20T00:21:16.948Z,5.10
2023-01-20T00:26:21.987Z,5.00
2023-01-20T00:31:27.495Z,4.90
2023-01-20T00:36:33.732Z,4.90
2023-01-20T00:41:36.893Z,4.90
2023-01-20T00:46:40.003Z,4.90
2023-01-20T00:51:44.463Z,5.00
2023-01-20T00:56:47.593Z,5.00
2023-01-20T01:01:50.822Z,5.00
2023-01-20T01:06:55.395Z,5.00
2023-01-20T01:11:58.588Z,5.00
2023-01-20T01:17:01.667Z,5.00
2023-01-20T01:22:06.112Z,5.00
2023-01-20T01:27:09.203Z,5.00
2023-01-20T01:32:12.551Z,5.00
2023-01-20T01:37:17.227Z,5.00
2023-01-20T01:42:24.568Z,5.00
2023-01-20T01:47:27.728Z,5.00
2023-01-20T01:52:33.323Z,4.90
2023-01-20T01:57:36.715Z,5.00
2023-01-20T02:02:40.302Z,4.90
2023-01-20T02:07:47.598Z,4.80
2023-01-20T02:12:52.043Z,4.80
2023-01-20T02:18:13.233Z,4.80
2023-01-20T02:23:33.948Z,4.70
2023-01-20T02:29:06.501Z,4.70
2023-01-20T02:34:17.781Z,4.70
2023-01-20T02:39:27.081Z,4.60
2023-01-20T02:44:37.065Z,4.60
2023-01-20T02:49:47.687Z,4.60
2023-01-20T02:54:54.856Z,4.50
2023-01-20T03:00:05.613Z,4.50
2023-01-20T03:05:15.644Z,4.50
2023-01-20T03:10:22.791Z,4.50
2023-01-20T03:15:33.609Z,4.50
2023-01-20T03:20:38.692Z,4.50
2023-01-20T03:25:42.851Z,4.50
2023-01-20T03:30:46.076Z,4.60
2023-01-20T03:35:51.170Z,4.50
2023-01-20T03:41:01.860Z,4.50
2023-01-20T03:46:12.936Z,4.50
2023-01-20T03:51:24.041Z,4.50
2023-01-20T03:56:32.955Z,4.50
2023-01-20T04:01:38.510Z,4.50
2023-01-20T04:06:45.077Z,4.50
2023-01-20T04:11:48.218Z,4.50
2023-01-20T04:16:53.720Z,4.50
2023-01-20T04:22:04.184Z,4.50
2023-01-20T04:27:07.248Z,4.50
2023-01-20T04:32:12.458Z,4.40
2023-01-20T04:37:16.954Z,4.30
2023-01-20T04:42:20.043Z,4.20
2023-01-20T04:47:23.156Z,4.10
2023-01-20T04:52:27.754Z,4.10
2023-01-20T04:57:30.991Z,4.10
2023-01-20T05:02:34.295Z,4.10
2023-01-20T05:07:38.774Z,4.20
2023-01-20T05:12:42.290Z,4.10
2023-01-20T05:17:45.493Z,4.00
2023-01-20T05:22:50.139Z,4.00
2023-01-20T05:27:56.076Z,4.10
2023-01-20T05:32:59.255Z,3.90
2023-01-20T05:38:03.714Z,4.10
2023-01-20T05:43:06.845Z,3.90
2023-01-20T05:48:10.081Z,3.90
2023-01-20T05:53:14.684Z,3.90
2023-01-20T05:58:17.825Z,3.80
2023-01-20T06:03:20.931Z,3.80
2023-01-20T06:08:25.434Z,3.90
2023-01-20T06:13:28.635Z,3.80
2023-01-20T06:18:31.797Z,3.70
2023-01-20T06:23:36.399Z,3.70
2023-01-20T06:28:39.530Z,3.70
2023-01-20T06:33:43.028Z,3.90
2023-01-20T06:38:50.553Z,3.70
2023-01-20T06:43:53.726Z,3.80
2023-01-20T06:49:00.608Z,3.80
2023-01-20T06:54:05.313Z,3.80
2023-01-20T06:59:08.449Z,3.70
2023-01-20T07:04:14.990Z,3.80
2023-01-20T07:09:19.474Z,3.80
2023-01-20T07:14:23.114Z,3.80
2023-01-20T07:19:26.303Z,3.90
2023-01-20T07:24:30.853Z,3.90
2023-01-20T07:29:33.985Z,3.90
2023-01-20T07:34:37.083Z,3.90
2023-01-20T07:39:42.213Z,3.80
2023-01-20T07:44:45.301Z,3.80
2023-01-20T07:49:48.478Z,3.80
2023-01-20T07:54:53.205Z,3.80
2023-01-20T07:59:56.343Z,4.00
2023-01-20T08:04:59.447Z,3.90
2023-01-20T08:10:04.538Z,3.90
2023-01-20T08:15:09.412Z,3.90
2023-01-20T08:20:13.411Z,4.00
2023-01-20T08:25:18.028Z,4.00
2023-01-20T08:30:21.443Z,4.00
2023-01-20T08:35:24.615Z,4.10
2023-01-20T08:40:29.319Z,4.10
2023-01-20T08:45:32.600Z,4.10
2023-01-20T08:50:35.749Z,4.10
2023-01-20T08:55:40.318Z,4.20
2023-01-20T09:00:43.775Z,4.20
2023-01-20T09:05:47.062Z,4.20
2023-01-20T09:10:51.541Z,4.20
2023-01-20T09:15:54.919Z,4.20
2023-01-20T09:20:59.455Z,4.20
2023-01-20T09:26:05.292Z,4.30
2023-01-20T09:31:10.302Z,4.20
2023-01-20T09:36:13.682Z,4.20
2023-01-20T09:41:53.550Z,4.20
2023-01-20T09:47:21.637Z,4.20
2023-01-20T09:52:47.890Z,4.30
2023-01-20T09:58:02.837Z,4.60
2023-01-20T10:03:12.968Z,4.60
2023-01-20T10:08:21.440Z,4.50
2023-01-20T10:13:32.749Z,4.50
2023-01-20T10:18:42.565Z,4.40
2023-01-20T10:23:51.623Z,4.40
2023-01-20T10:29:01.601Z,4.40
2023-01-20T10:34:12.123Z,4.40
2023-01-20T10:39:26.371Z,4.40
2023-01-20T10:44:35.659Z,4.30
2023-01-20T10:50:07.116Z,4.40
2023-01-20T10:55:23.233Z,4.40
2023-01-20T11:00:31.204Z,4.50
2023-01-20T11:05:38.203Z,4.50
2023-01-20T11:10:41.911Z,4.50
2023-01-20T11:15:49.242Z,4.50
2023-01-20T11:20:55.493Z,4.50
2023-01-20T11:26:00.218Z,4.50
2023-01-20T11:31:05.394Z,4.50
2023-01-20T11:36:18.694Z,4.60
2023-01-20T11:41:23.816Z,4.60
2023-01-20T11:46:31.025Z,4.70
2023-01-20T11:51:34.363Z,4.70
2023-01-20T11:56:42.126Z,4.70
2023-01-20T12:01:57.398Z,4.80
2023-01-20T12:07:04.755Z,4.80
2023-01-20T12:12:13.231Z,4.80
2023-01-20T12:17:41.813Z,4.80
2023-01-20T12:23:00.079Z,4.90
2023-01-20T12:28:10.597Z,4.90
2023-01-20T12:33:26.626Z,5.00
2023-01-20T12:38:35.784Z,5.00
2023-01-20T12:43:51.432Z,5.00
2023-01-20T12:49:14.797Z,5.00
2023-01-20T12:54:48.271Z,5.00
2023-01-20T13:00:03.235Z,5.00
2023-01-20T13:05:29.008Z,5.00
2023-01-20T13:10:51.085Z,5.10
2023-01-20T13:15:58.747Z,5.10
2023-01-20T13:21:03.336Z,5.10
2023-01-20T13:26:07.465Z,5.20
2023-01-20T13:31:34.033Z,5.20
2023-01-20T13:36:38.935Z,5.20
2023-01-20T13:41:50.462Z,5.20
2023-01-20T13:46:54.360Z,5.30
2023-01-20T13:51:58.976Z,5.30
2023-01-20T13:57:36.499Z,5.30
2023-01-20T14:02:39.851Z,5.30
2023-01-20T14:07:45.625Z,5.40
2023-01-20T14:12:48.957Z,5.40
2023-01-20T14:17:55.771Z,5.50
2023-01-20T14:23:28.809Z,5.50
2023-01-20T14:28:32.240Z,5.50
2023-01-20T14:33:35.370Z,5.50
2023-01-20T14:38:56.074Z,5.50
2023-01-20T14:44:00.262Z,5.40
2023-01-20T14:49:05.050Z,5.40
2023-01-20T14:54:44.738Z,5.30
2023-01-20T15:00:02.137Z,5.30
2023-01-20T15:05:27.817Z,5.20
2023-01-20T15:10:30.973Z,5.20
2023-01-20T15:15:35.561Z,5.30
2023-01-20T15:20:41.666Z,5.30
2023-01-20T15:25:44.961Z,5.30
2023-01-20T15:30:49.662Z,5.30
2023-01-20T15:35:55.916Z,5.30
2023-01-20T15:40:59.134Z,5.30
2023-01-20T15:46:03.714Z,5.30
2023-01-20T15:51:08.176Z,5.30
2023-01-20T15:56:17.689Z,5.20
2023-01-20T16:01:25.049Z,5.10
2023-01-20T16:06:31.616Z,5.10
2023-01-20T16:11:34.711Z,5.10
2023-01-20T16:16:39.252Z,5.10
2023-01-20T16:21:45.045Z,5.10
2023-01-20T16:26:48.777Z,5.10
2023-01-20T16:31:53.460Z,5.10
2023-01-20T16:36:56.617Z,5.10
2023-01-20T16:41:59.994Z,5.10
2023-01-20T16:47:04.582Z,5.00
2023-01-20T16:52:08.200Z,4.90
2023-01-20T16:57:11.979Z,4.90
2023-01-20T17:02:17.466Z,4.90
2023-01-20T17:07:20.617Z,4.90
2023-01-20T17:12:23.854Z,4.80
2023-01-20T17:17:28.402Z,4.70
2023-01-20T17:22:31.475Z,4.60
2023-01-20T17:27:34.769Z,4.50
2023-01-20T17:32:39.268Z,4.40
2023-01-20T17:37:42.453Z,4.30
2023-01-20T17:42:46.495Z,4.50
2023-01-20T17:47:53.001Z,4.30
2023-01-20T17:52:56.293Z,4.30
2023-01-20T17:57:59.408Z,4.20
2023-01-20T18:03:03.876Z,4.20
2023-01-20T18:08:07.140Z,4.10
2023-01-20T18:13:10.444Z,4.20
2023-01-20T18:18:14.955Z,4.20
2023-01-20T18:23:18.044Z,4.30
2023-01-20T18:28:21.134Z,4.30
2023-01-20T18:33:25.678Z,4.50
2023-01-20T18:38:28.821Z,4.40
2023-01-20T18:43:31.989Z,4.50
2023-01-20T18:48:39.057Z,4.60
2023-01-20T18:53:43.212Z,4.50
2023-01-20T18:58:47.381Z,4.50
2023-01-20T19:03:52.385Z,4.60
2023-01-20T19:08:57.461Z,4.50
2023-01-20T19:14:00.961Z,4.50
2023-01-20T19:19:07.465Z,4.50
2023-01-20T19:24:16.014Z,4.50
2023-01-20T19:29:19.935Z,4.40
2023-01-20T19:34:24.354Z,4.40
2023-01-20T19:39:27.901Z,4.40
2023-01-20T19:44:31.012Z,4.40
2023-01-20T19:49:35.699Z,4.40
2023-01-20T19:54:39.785Z,4.40
2023-01-20T19:59:42.929Z,4.50
2023-01-20T20:04:47.384Z,4.50
2023-01-20T20:09:51.547Z,4.60
2023-01-20T20:14:55.454Z,4.60
2023-01-20T20:19:59.973Z,4.60
2023-01-20T20:25:03.072Z,4.70
2023-01-20T20:30:07.712Z,4.70
2023-01-20T20:35:12.334Z,4.60
2023-01-20T20:40:15.994Z,4.60
2023-01-20T20:45:19.738Z,4.50
2023-01-20T20:50:25.277Z,4.50
2023-01-20T20:55:29.426Z,4.60
2023-01-20T21:00:32.552Z,4.60
2023-01-20T21:05:37.046Z,4.60
2023-01-20T21:10:41.959Z,4.60
2023-01-20T21:15:45.117Z,4.60
2023-01-20T21:20:55.563Z,4.60
2023-01-20T21:26:01.870Z,4.50
2023-01-20T21:31:07.768Z,4.30
2023-01-20T21:36:13.133Z,4.20
2023-01-20T21:41:16.656Z,4.10
2023-01-20T21:46:20.582Z,4.00
2023-01-20T21:51:42.291Z,3.90
2023-01-20T21:56:45.518Z,3.90
2023-01-20T22:01:48.722Z,3.80
2023-01-20T22:06:53.244Z,3.70
2023-01-20T22:11:56.435Z,3.60
2023-01-20T22:16:59.756Z,3.60
2023-01-20T22:22:05.183Z,3.60
2023-01-20T22:27:08.281Z,3.50
2023-01-20T22:32:11.338Z,3.50
2023-01-20T22:37:15.780Z,3.50
2023-01-20T22:42:18.994Z,3.70
2023-01-20T22:47:22.113Z,3.70
2023-01-20T22:52:26.588Z,3.80
2023-01-20T22:57:31.180Z,3.70
2023-01-20T23:02:34.273Z,3.70
2023-01-20T23:07:38.784Z,3.70
2023-01-20T23:12:41.900Z,3.80
2023-01-20T23:17:44.941Z,3.80
2023-01-20T23:22:49.385Z,3.80
2023-01-20T23:27:52.463Z,3.80
2023-01-20T23:32:55.617Z,3.80
2023-01-20T23:38:00.089Z,3.90
2023-01-20T23:43:03.333Z,3.80
2023-01-20T23:48:07.001Z,3.80
2023-01-20T23:53:11.412Z,3.80
2023-01-20T23:58:14.514Z,3.80
